sensor_id;sensor_type;location;lat;lon;timestamp;noise_LAeq;noise_LA_min;noise_LA_max;noise_LA01;noise_LA95
67900;Laerm;54700;51.796;10.956;2023-03-31T00:00:17;29.83;27.59;38.70;;
67900;Laerm;54700;51.796;10.956;2023-03-31T00:02:44;47.21;28.93;61.03;;
67900;Laerm;54700;51.796;10.956;2023-03-31T00:05:11;29.81;27.52;38.96;;
67900;Laerm;54700;51.796;10.956;2023-03-31T00:07:42;31.37;27.61;39.81;;
67900;Laerm;54700;51.796;10.956;2023-03-31T00:10:11;49.84;27.43;66.81;;
67900;Laerm;54700;51.796;10.956;2023-03-31T00:12:39;37.15;27.57;51.70;;
67900;Laerm;54700;51.796;10.956;2023-03-31T00:15:06;29.65;27.63;40.92;;
67900;Laerm;54700;51.796;10.956;2023-03-31T00:17:33;49.53;28.00;67.15;;
67900;Laerm;54700;51.796;10.956;2023-03-31T00:20:00;30.23;27.77;40.25;;
67900;Laerm;54700;51.796;10.956;2023-03-31T00:22:30;29.75;27.66;39.76;;
67900;Laerm;54700;51.796;10.956;2023-03-31T00:24:56;30.33;27.81;38.81;;
67900;Laerm;54700;51.796;10.956;2023-03-31T00:27:25;30.21;27.71;41.90;;
67900;Laerm;54700;51.796;10.956;2023-03-31T00:29:54;51.62;27.49;68.58;;
67900;Laerm;54700;51.796;10.956;2023-03-31T00:32:21;31.02;27.52;41.62;;
67900;Laerm;54700;51.796;10.956;2023-03-31T00:34:49;30.20;27.58;40.68;;
67900;Laerm;54700;51.796;10.956;2023-03-31T00:37:16;46.59;27.88;62.28;;
67900;Laerm;54700;51.796;10.956;2023-03-31T00:39:43;29.72;27.61;40.74;;
67900;Laerm;54700;51.796;10.956;2023-03-31T00:42:11;49.88;27.97;65.84;;
67900;Laerm;54700;51.796;10.956;2023-03-31T00:47:51;32.40;28.11;42.74;;
67900;Laerm;54700;51.796;10.956;2023-03-31T00:50:22;30.60;27.72;40.75;;
67900;Laerm;54700;51.796;10.956;2023-03-31T00:52:54;30.58;28.04;39.17;;
67900;Laerm;54700;51.796;10.956;2023-03-31T00:55:31;32.30;27.69;47.97;;
67900;Laerm;54700;51.796;10.956;2023-03-31T00:58:00;49.08;27.98;66.07;;
67900;Laerm;54700;51.796;10.956;2023-03-31T01:00:30;52.90;28.20;69.24;;
67900;Laerm;54700;51.796;10.956;2023-03-31T01:03:01;31.95;27.86;46.57;;
67900;Laerm;54700;51.796;10.956;2023-03-31T01:05:41;30.41;28.07;40.10;;
67900;Laerm;54700;51.796;10.956;2023-03-31T01:08:10;53.37;28.06;72.89;;
67900;Laerm;54700;51.796;10.956;2023-03-31T01:10:39;29.96;27.66;40.48;;
67900;Laerm;54700;51.796;10.956;2023-03-31T01:13:07;29.69;27.49;38.69;;
67900;Laerm;54700;51.796;10.956;2023-03-31T01:15:37;29.53;27.40;39.81;;
67900;Laerm;54700;51.796;10.956;2023-03-31T01:18:04;29.59;27.57;40.88;;
67900;Laerm;54700;51.796;10.956;2023-03-31T01:20:35;30.00;27.77;39.59;;
67900;Laerm;54700;51.796;10.956;2023-03-31T01:23:48;30.78;28.39;46.53;;
67900;Laerm;54700;51.796;10.956;2023-03-31T01:29:30;30.91;28.45;40.26;;
67900;Laerm;54700;51.796;10.956;2023-03-31T01:35:25;30.47;27.88;41.44;;
67900;Laerm;54700;51.796;10.956;2023-03-31T01:38:27;30.75;28.24;43.46;;
67900;Laerm;54700;51.796;10.956;2023-03-31T01:41:09;30.73;27.72;40.30;;
67900;Laerm;54700;51.796;10.956;2023-03-31T01:43:45;33.00;28.04;43.02;;
67900;Laerm;54700;51.796;10.956;2023-03-31T01:46:20;58.47;28.19;75.46;;
67900;Laerm;54700;51.796;10.956;2023-03-31T01:48:58;51.60;28.21;68.14;;
67900;Laerm;54700;51.796;10.956;2023-03-31T01:51:32;37.06;28.31;52.02;;
67900;Laerm;54700;51.796;10.956;2023-03-31T01:54:04;56.79;28.93;72.23;;
67900;Laerm;54700;51.796;10.956;2023-03-31T01:56:37;31.80;28.09;41.33;;
67900;Laerm;54700;51.796;10.956;2023-03-31T01:59:09;54.83;27.98;70.93;;
67900;Laerm;54700;51.796;10.956;2023-03-31T02:01:41;30.75;28.18;39.94;;
67900;Laerm;54700;51.796;10.956;2023-03-31T02:04:12;30.80;28.13;39.76;;
67900;Laerm;54700;51.796;10.956;2023-03-31T02:06:49;34.11;29.66;40.53;;
67900;Laerm;54700;51.796;10.956;2023-03-31T02:09:27;31.28;28.41;42.13;;
67900;Laerm;54700;51.796;10.956;2023-03-31T02:12:03;49.36;29.85;68.61;;
67900;Laerm;54700;51.796;10.956;2023-03-31T02:14:31;52.71;28.56;71.02;;
67900;Laerm;54700;51.796;10.956;2023-03-31T02:17:01;48.81;27.99;64.79;;
67900;Laerm;54700;51.796;10.956;2023-03-31T02:19:30;48.28;27.78;62.61;;
67900;Laerm;54700;51.796;10.956;2023-03-31T02:22:03;30.32;27.70;41.35;;
67900;Laerm;54700;51.796;10.956;2023-03-31T02:24:32;51.19;28.11;67.77;;
67900;Laerm;54700;51.796;10.956;2023-03-31T02:27:05;54.35;28.56;70.23;;
67900;Laerm;54700;51.796;10.956;2023-03-31T02:29:33;47.85;28.44;64.40;;
67900;Laerm;54700;51.796;10.956;2023-03-31T02:32:04;55.77;28.88;68.82;;
67900;Laerm;54700;51.796;10.956;2023-03-31T02:34:35;53.36;29.00;68.85;;
67900;Laerm;54700;51.796;10.956;2023-03-31T02:37:02;34.18;29.09;45.96;;
67900;Laerm;54700;51.796;10.956;2023-03-31T02:39:34;47.18;30.01;61.69;;
67900;Laerm;54700;51.796;10.956;2023-03-31T02:42:04;55.50;29.37;70.35;;
67900;Laerm;54700;51.796;10.956;2023-03-31T02:44:35;31.48;28.87;44.32;;
67900;Laerm;54700;51.796;10.956;2023-03-31T02:47:02;52.75;29.47;67.93;;
67900;Laerm;54700;51.796;10.956;2023-03-31T02:49:30;57.07;28.71;68.42;;
67900;Laerm;54700;51.796;10.956;2023-03-31T02:52:22;55.51;29.14;70.98;;
67900;Laerm;54700;51.796;10.956;2023-03-31T02:58:15;33.20;29.39;43.46;;
67900;Laerm;54700;51.796;10.956;2023-03-31T03:00:57;55.32;28.85;69.28;;
67900;Laerm;54700;51.796;10.956;2023-03-31T03:03:37;49.63;29.07;65.88;;
67900;Laerm;54700;51.796;10.956;2023-03-31T03:06:25;49.88;29.29;67.17;;
67900;Laerm;54700;51.796;10.956;2023-03-31T03:09:06;55.12;29.98;68.94;;
67900;Laerm;54700;51.796;10.956;2023-03-31T03:11:40;56.41;30.34;69.17;;
67900;Laerm;54700;51.796;10.956;2023-03-31T03:14:20;47.50;29.28;63.04;;
67900;Laerm;54700;51.796;10.956;2023-03-31T03:16:55;54.34;29.81;69.24;;
67900;Laerm;54700;51.796;10.956;2023-03-31T03:19:24;52.88;29.84;69.05;;
67900;Laerm;54700;51.796;10.956;2023-03-31T03:21:52;56.06;30.83;68.96;;
67900;Laerm;54700;51.796;10.956;2023-03-31T03:24:21;59.72;33.49;71.89;;
67900;Laerm;54700;51.796;10.956;2023-03-31T03:26:48;59.78;33.64;71.12;;
67900;Laerm;54700;51.796;10.956;2023-03-31T03:29:17;57.83;34.50;71.19;;
67900;Laerm;54700;51.796;10.956;2023-03-31T03:31:44;57.66;36.03;69.15;;
67900;Laerm;54700;51.796;10.956;2023-03-31T03:34:15;59.89;40.86;72.95;;
67900;Laerm;54700;51.796;10.956;2023-03-31T03:36:43;58.24;31.39;70.01;;
67900;Laerm;54700;51.796;10.956;2023-03-31T03:39:10;54.71;33.16;69.80;;
67900;Laerm;54700;51.796;10.956;2023-03-31T03:41:37;55.56;32.10;67.05;;
67900;Laerm;54700;51.796;10.956;2023-03-31T03:44:04;60.55;38.78;69.72;;
67900;Laerm;54700;51.796;10.956;2023-03-31T03:46:32;57.35;34.16;69.59;;
67900;Laerm;54700;51.796;10.956;2023-03-31T03:48:59;56.00;33.79;69.26;;
67900;Laerm;54700;51.796;10.956;2023-03-31T03:51:26;60.96;34.62;71.84;;
67900;Laerm;54700;51.796;10.956;2023-03-31T03:53:53;61.24;35.81;70.14;;
67900;Laerm;54700;51.796;10.956;2023-03-31T03:56:20;60.82;35.66;73.59;;
67900;Laerm;54700;51.796;10.956;2023-03-31T03:58:47;58.17;33.23;67.95;;
67900;Laerm;54700;51.796;10.956;2023-03-31T04:01:14;62.54;38.52;82.82;;
67900;Laerm;54700;51.796;10.956;2023-03-31T04:03:44;62.50;32.63;77.96;;
67900;Laerm;54700;51.796;10.956;2023-03-31T04:06:11;55.07;35.12;68.20;;
67900;Laerm;54700;51.796;10.956;2023-03-31T04:08:38;59.48;34.77;70.34;;
67900;Laerm;54700;51.796;10.956;2023-03-31T04:11:11;57.80;34.86;68.05;;
67900;Laerm;54700;51.796;10.956;2023-03-31T04:13:39;60.12;36.48;70.27;;
67900;Laerm;54700;51.796;10.956;2023-03-31T04:16:06;58.32;38.25;68.76;;
67900;Laerm;54700;51.796;10.956;2023-03-31T04:18:33;60.92;36.20;74.45;;
67900;Laerm;54700;51.796;10.956;2023-03-31T04:21:03;56.33;35.21;67.23;;
67900;Laerm;54700;51.796;10.956;2023-03-31T04:23:30;61.86;35.62;75.38;;
67900;Laerm;54700;51.796;10.956;2023-03-31T04:25:58;60.80;42.21;71.71;;
67900;Laerm;54700;51.796;10.956;2023-03-31T04:28:25;61.48;41.80;71.44;;
67900;Laerm;54700;51.796;10.956;2023-03-31T04:31:01;58.13;37.87;69.05;;
67900;Laerm;54700;51.796;10.956;2023-03-31T04:33:28;62.45;43.02;71.95;;
67900;Laerm;54700;51.796;10.956;2023-03-31T04:35:55;61.98;38.83;71.94;;
67900;Laerm;54700;51.796;10.956;2023-03-31T04:38:24;62.12;40.01;72.96;;
67900;Laerm;54700;51.796;10.956;2023-03-31T04:40:52;60.80;40.78;75.67;;
67900;Laerm;54700;51.796;10.956;2023-03-31T04:43:20;62.75;43.47;74.71;;
67900;Laerm;54700;51.796;10.956;2023-03-31T04:45:47;61.19;40.42;71.69;;
67900;Laerm;54700;51.796;10.956;2023-03-31T04:48:16;61.74;40.88;71.97;;
67900;Laerm;54700;51.796;10.956;2023-03-31T04:50:46;63.83;43.42;73.65;;
67900;Laerm;54700;51.796;10.956;2023-03-31T04:53:13;64.31;42.70;79.27;;
67900;Laerm;54700;51.796;10.956;2023-03-31T04:55:41;63.43;43.06;72.37;;
67900;Laerm;54700;51.796;10.956;2023-03-31T04:58:11;61.52;46.61;72.71;;
67900;Laerm;54700;51.796;10.956;2023-03-31T05:00:38;62.64;49.65;74.14;;
67900;Laerm;54700;51.796;10.956;2023-03-31T05:03:10;61.69;46.92;72.41;;
67900;Laerm;54700;51.796;10.956;2023-03-31T05:05:40;64.75;47.02;76.45;;
67900;Laerm;54700;51.796;10.956;2023-03-31T05:08:23;62.55;49.46;71.47;;
67900;Laerm;54700;51.796;10.956;2023-03-31T05:10:54;62.28;41.16;74.74;;
67900;Laerm;54700;51.796;10.956;2023-03-31T05:13:21;60.32;40.67;70.62;;
67900;Laerm;54700;51.796;10.956;2023-03-31T05:15:59;63.72;45.15;75.72;;
67900;Laerm;54700;51.796;10.956;2023-03-31T05:18:35;62.04;40.36;70.99;;
67900;Laerm;54700;51.796;10.956;2023-03-31T05:21:17;63.20;45.44;74.93;;
67900;Laerm;54700;51.796;10.956;2023-03-31T05:23:52;62.42;46.71;70.39;;
67900;Laerm;54700;51.796;10.956;2023-03-31T05:26:23;64.85;47.34;75.02;;
67900;Laerm;54700;51.796;10.956;2023-03-31T05:29:02;64.40;50.86;76.40;;
67900;Laerm;54700;51.796;10.956;2023-03-31T05:31:45;63.90;51.47;72.23;;
67900;Laerm;54700;51.796;10.956;2023-03-31T05:34:12;63.52;49.44;73.34;;
67900;Laerm;54700;51.796;10.956;2023-03-31T05:37:05;64.19;50.35;71.96;;
67900;Laerm;54700;51.796;10.956;2023-03-31T05:39:32;61.81;47.67;70.56;;
67900;Laerm;54700;51.796;10.956;2023-03-31T05:42:01;62.82;48.19;72.94;;
67900;Laerm;54700;51.796;10.956;2023-03-31T05:44:35;61.94;48.48;73.04;;
67900;Laerm;54700;51.796;10.956;2023-03-31T05:47:05;62.61;50.67;75.69;;
67900;Laerm;54700;51.796;10.956;2023-03-31T05:49:38;64.05;50.04;75.76;;
67900;Laerm;54700;51.796;10.956;2023-03-31T05:52:12;63.57;43.78;76.54;;
67900;Laerm;54700;51.796;10.956;2023-03-31T05:54:44;62.19;38.26;71.97;;
67900;Laerm;54700;51.796;10.956;2023-03-31T05:57:28;64.70;49.84;74.46;;
67900;Laerm;54700;51.796;10.956;2023-03-31T05:59:58;64.16;48.20;72.35;;
67900;Laerm;54700;51.796;10.956;2023-03-31T06:02:28;63.51;41.45;75.98;;
67900;Laerm;54700;51.796;10.956;2023-03-31T06:04:56;62.09;39.42;73.64;;
67900;Laerm;54700;51.796;10.956;2023-03-31T06:07:23;60.03;42.47;69.82;;
67900;Laerm;54700;51.796;10.956;2023-03-31T06:09:51;61.64;38.97;69.90;;
67900;Laerm;54700;51.796;10.956;2023-03-31T06:12:18;63.09;38.60;77.01;;
67900;Laerm;54700;51.796;10.956;2023-03-31T06:14:49;59.71;37.43;69.91;;
67900;Laerm;54700;51.796;10.956;2023-03-31T06:17:22;64.23;44.93;76.94;;
67900;Laerm;54700;51.796;10.956;2023-03-31T06:20:10;63.50;38.73;78.68;;
67900;Laerm;54700;51.796;10.956;2023-03-31T06:22:52;63.30;46.13;75.12;;
67900;Laerm;54700;51.796;10.956;2023-03-31T06:25:36;61.42;35.19;71.34;;
67900;Laerm;54700;51.796;10.956;2023-03-31T06:28:08;63.19;37.18;80.35;;
67900;Laerm;54700;51.796;10.956;2023-03-31T06:31:05;61.97;44.65;72.91;;
67900;Laerm;54700;51.796;10.956;2023-03-31T06:33:37;63.35;42.37;75.34;;
67900;Laerm;54700;51.796;10.956;2023-03-31T06:36:12;60.36;38.19;71.23;;
67900;Laerm;54700;51.796;10.956;2023-03-31T06:38:43;62.94;41.22;74.42;;
67900;Laerm;54700;51.796;10.956;2023-03-31T06:41:18;63.54;44.59;71.84;;
67900;Laerm;54700;51.796;10.956;2023-03-31T06:44:11;61.87;43.80;73.50;;
67900;Laerm;54700;51.796;10.956;2023-03-31T06:46:45;63.56;45.40;73.55;;
67900;Laerm;54700;51.796;10.956;2023-03-31T06:49:31;61.36;39.88;71.47;;
67900;Laerm;54700;51.796;10.956;2023-03-31T06:52:04;60.10;37.57;70.31;;
67900;Laerm;54700;51.796;10.956;2023-03-31T06:54:33;64.12;40.62;71.50;;
67900;Laerm;54700;51.796;10.956;2023-03-31T06:57:02;63.75;42.20;70.72;;
67900;Laerm;54700;51.796;10.956;2023-03-31T06:59:35;62.73;40.63;72.34;;
67900;Laerm;54700;51.796;10.956;2023-03-31T07:02:17;62.70;37.23;74.80;;
67900;Laerm;54700;51.796;10.956;2023-03-31T07:04:56;61.26;42.24;74.27;;
67900;Laerm;54700;51.796;10.956;2023-03-31T07:07:33;59.97;40.28;69.84;;
67900;Laerm;54700;51.796;10.956;2023-03-31T07:10:06;61.59;41.90;71.30;;
67900;Laerm;54700;51.796;10.956;2023-03-31T07:12:42;62.83;40.06;79.03;;
67900;Laerm;54700;51.796;10.956;2023-03-31T07:15:12;62.17;44.51;72.08;;
67900;Laerm;54700;51.796;10.956;2023-03-31T07:17:45;63.84;44.07;74.75;;
67900;Laerm;54700;51.796;10.956;2023-03-31T07:20:17;63.74;43.81;73.52;;
67900;Laerm;54700;51.796;10.956;2023-03-31T07:22:45;63.08;42.75;70.48;;
67900;Laerm;54700;51.796;10.956;2023-03-31T07:25:14;64.25;43.80;80.37;;
67900;Laerm;54700;51.796;10.956;2023-03-31T07:27:43;62.55;38.72;77.13;;
67900;Laerm;54700;51.796;10.956;2023-03-31T07:30:16;62.98;48.85;74.58;;
67900;Laerm;54700;51.796;10.956;2023-03-31T07:32:49;63.35;45.99;71.58;;
67900;Laerm;54700;51.796;10.956;2023-03-31T07:35:18;62.67;43.51;71.40;;
67900;Laerm;54700;51.796;10.956;2023-03-31T07:37:53;60.08;42.26;68.22;;
67900;Laerm;54700;51.796;10.956;2023-03-31T07:40:40;63.14;51.35;83.93;;
67900;Laerm;54700;51.796;10.956;2023-03-31T07:43:41;61.04;44.20;73.06;;
67900;Laerm;54700;51.796;10.956;2023-03-31T07:46:59;62.78;45.64;69.99;;
67900;Laerm;54700;51.796;10.956;2023-03-31T07:56:22;62.84;45.92;73.92;;
67900;Laerm;54700;51.796;10.956;2023-03-31T07:59:26;63.15;43.22;72.17;;
67900;Laerm;54700;51.796;10.956;2023-03-31T08:01:58;63.90;48.55;73.88;;
67900;Laerm;54700;51.796;10.956;2023-03-31T08:04:28;61.84;44.12;70.66;;
67900;Laerm;54700;51.796;10.956;2023-03-31T08:07:05;64.90;47.07;80.96;;
67900;Laerm;54700;51.796;10.956;2023-03-31T08:09:42;64.17;49.65;76.09;;
67900;Laerm;54700;51.796;10.956;2023-03-31T08:12:23;64.32;39.87;89.49;;
67900;Laerm;54700;51.796;10.956;2023-03-31T08:15:08;62.57;51.34;72.47;;
67900;Laerm;54700;51.796;10.956;2023-03-31T08:17:45;61.73;42.57;69.33;;
67900;Laerm;54700;51.796;10.956;2023-03-31T08:20:29;63.04;42.35;79.74;;
67900;Laerm;54700;51.796;10.956;2023-03-31T08:23:07;63.82;43.63;71.85;;
67900;Laerm;54700;51.796;10.956;2023-03-31T08:25:40;63.62;48.06;71.30;;
67900;Laerm;54700;51.796;10.956;2023-03-31T08:28:18;63.24;40.21;70.22;;
67900;Laerm;54700;51.796;10.956;2023-03-31T08:30:53;62.70;38.26;71.06;;
67900;Laerm;54700;51.796;10.956;2023-03-31T08:33:24;70.31;49.32;92.46;;
67900;Laerm;54700;51.796;10.956;2023-03-31T08:35:51;63.04;47.14;70.98;;
67900;Laerm;54700;51.796;10.956;2023-03-31T08:38:19;62.67;36.69;73.81;;
67900;Laerm;54700;51.796;10.956;2023-03-31T08:40:47;63.42;45.96;70.81;;
67900;Laerm;54700;51.796;10.956;2023-03-31T08:43:30;61.56;43.19;70.38;;
67900;Laerm;54700;51.796;10.956;2023-03-31T08:46:02;61.00;39.33;73.52;;
67900;Laerm;54700;51.796;10.956;2023-03-31T08:48:36;63.54;46.09;75.06;;
67900;Laerm;54700;51.796;10.956;2023-03-31T08:51:14;61.72;36.48;78.32;;
67900;Laerm;54700;51.796;10.956;2023-03-31T08:53:56;62.25;38.44;71.60;;
67900;Laerm;54700;51.796;10.956;2023-03-31T08:56:29;62.73;39.18;70.79;;
67900;Laerm;54700;51.796;10.956;2023-03-31T08:59:00;63.98;47.37;71.70;;
67900;Laerm;54700;51.796;10.956;2023-03-31T09:01:35;64.63;45.60;74.54;;
67900;Laerm;54700;51.796;10.956;2023-03-31T09:04:20;64.22;43.12;72.78;;
67900;Laerm;54700;51.796;10.956;2023-03-31T09:06:55;63.82;50.50;70.86;;
67900;Laerm;54700;51.796;10.956;2023-03-31T09:09:38;63.82;50.17;79.45;;
67900;Laerm;54700;51.796;10.956;2023-03-31T09:12:27;64.37;47.58;76.00;;
67900;Laerm;54700;51.796;10.956;2023-03-31T09:15:25;62.95;43.80;70.72;;
67900;Laerm;54700;51.796;10.956;2023-03-31T09:17:54;61.94;40.44;71.85;;
67900;Laerm;54700;51.796;10.956;2023-03-31T09:20:29;63.15;46.48;70.74;;
67900;Laerm;54700;51.796;10.956;2023-03-31T09:23:11;64.01;41.20;74.14;;
67900;Laerm;54700;51.796;10.956;2023-03-31T09:25:42;62.06;47.16;68.71;;
67900;Laerm;54700;51.796;10.956;2023-03-31T09:28:15;64.83;43.80;71.96;;
67900;Laerm;54700;51.796;10.956;2023-03-31T09:30:52;62.73;41.55;70.66;;
67900;Laerm;54700;51.796;10.956;2023-03-31T09:33:29;63.41;43.00;75.86;;
67900;Laerm;54700;51.796;10.956;2023-03-31T09:36:15;62.28;46.21;72.07;;
67900;Laerm;54700;51.796;10.956;2023-03-31T09:39:14;63.38;43.92;74.46;;
67900;Laerm;54700;51.796;10.956;2023-03-31T09:42:12;61.55;44.39;72.93;;
67900;Laerm;54700;51.796;10.956;2023-03-31T09:45:18;62.85;48.01;70.22;;
67900;Laerm;54700;51.796;10.956;2023-03-31T09:48:25;64.91;42.50;74.87;;
67900;Laerm;54700;51.796;10.956;2023-03-31T09:51:17;66.23;44.51;86.03;;
67900;Laerm;54700;51.796;10.956;2023-03-31T09:55:01;61.60;39.23;71.35;;
67900;Laerm;54700;51.796;10.956;2023-03-31T09:57:28;66.64;50.45;86.68;;
67900;Laerm;54700;51.796;10.956;2023-03-31T10:00:14;63.41;45.69;72.90;;
67900;Laerm;54700;51.796;10.956;2023-03-31T10:03:00;61.94;44.12;76.03;;
67900;Laerm;54700;51.796;10.956;2023-03-31T10:05:54;64.15;49.61;74.59;;
67900;Laerm;54700;51.796;10.956;2023-03-31T10:08:26;64.66;45.72;71.24;;
67900;Laerm;54700;51.796;10.956;2023-03-31T10:11:07;63.86;43.72;80.52;;
67900;Laerm;54700;51.796;10.956;2023-03-31T10:13:46;63.50;41.37;77.98;;
67900;Laerm;54700;51.796;10.956;2023-03-31T10:16:20;64.54;46.61;75.11;;
67900;Laerm;54700;51.796;10.956;2023-03-31T10:19:28;63.83;41.47;74.28;;
67900;Laerm;54700;51.796;10.956;2023-03-31T10:22:08;65.02;43.58;73.53;;
67900;Laerm;54700;51.796;10.956;2023-03-31T10:24:46;63.92;40.80;73.97;;
67900;Laerm;54700;51.796;10.956;2023-03-31T10:27:23;65.44;50.87;74.98;;
67900;Laerm;54700;51.796;10.956;2023-03-31T10:30:00;65.71;52.57;72.15;;
67900;Laerm;54700;51.796;10.956;2023-03-31T10:32:32;67.27;43.78;77.58;;
67900;Laerm;54700;51.796;10.956;2023-03-31T10:35:04;66.88;54.14;74.10;;
67900;Laerm;54700;51.796;10.956;2023-03-31T10:37:35;64.81;41.40;73.63;;
67900;Laerm;54700;51.796;10.956;2023-03-31T10:40:13;65.22;51.89;76.59;;
67900;Laerm;54700;51.796;10.956;2023-03-31T10:42:46;67.02;52.86;81.82;;
67900;Laerm;54700;51.796;10.956;2023-03-31T10:45:35;67.35;51.59;76.94;;
67900;Laerm;54700;51.796;10.956;2023-03-31T10:51:41;65.47;38.48;73.80;;
67900;Laerm;54700;51.796;10.956;2023-03-31T10:54:32;65.36;43.87;73.59;;
67900;Laerm;54700;51.796;10.956;2023-03-31T10:57:28;65.29;45.87;72.83;;
67900;Laerm;54700;51.796;10.956;2023-03-31T11:00:30;66.39;48.73;76.04;;
67900;Laerm;54700;51.796;10.956;2023-03-31T11:03:53;66.34;41.13;74.74;;
67900;Laerm;54700;51.796;10.956;2023-03-31T11:06:45;65.32;48.04;73.11;;
67900;Laerm;54700;51.796;10.956;2023-03-31T11:09:39;64.29;45.95;72.06;;
67900;Laerm;54700;51.796;10.956;2023-03-31T11:12:20;65.95;51.98;73.59;;
67900;Laerm;54700;51.796;10.956;2023-03-31T11:15:34;63.75;44.66;71.30;;
67900;Laerm;54700;51.796;10.956;2023-03-31T11:21:19;64.42;46.82;72.70;;
67900;Laerm;54700;51.796;10.956;2023-03-31T11:24:00;65.45;48.24;74.22;;
67900;Laerm;54700;51.796;10.956;2023-03-31T11:26:42;65.20;49.18;72.28;;
67900;Laerm;54700;51.796;10.956;2023-03-31T11:29:23;62.20;41.38;70.72;;
67900;Laerm;54700;51.796;10.956;2023-03-31T11:32:18;64.97;44.28;73.08;;
67900;Laerm;54700;51.796;10.956;2023-03-31T11:35:01;66.44;53.29;82.79;;
67900;Laerm;54700;51.796;10.956;2023-03-31T11:40:58;65.01;50.61;83.30;;
67900;Laerm;54700;51.796;10.956;2023-03-31T11:43:44;61.04;40.63;75.11;;
67900;Laerm;54700;51.796;10.956;2023-03-31T11:46:22;63.26;48.27;75.27;;
67900;Laerm;54700;51.796;10.956;2023-03-31T12:03:12;65.82;42.72;79.79;;
67900;Laerm;54700;51.796;10.956;2023-03-31T12:05:47;65.37;37.43;74.70;;
67900;Laerm;54700;51.796;10.956;2023-03-31T12:08:18;64.35;38.92;74.73;;
67900;Laerm;54700;51.796;10.956;2023-03-31T12:10:57;63.56;37.89;75.64;;
67900;Laerm;54700;51.796;10.956;2023-03-31T12:13:40;63.55;41.60;73.47;;
67900;Laerm;54700;51.796;10.956;2023-03-31T12:16:22;63.72;50.70;72.16;;
67900;Laerm;54700;51.796;10.956;2023-03-31T12:19:01;63.09;36.88;72.02;;
67900;Laerm;54700;51.796;10.956;2023-03-31T12:21:32;63.15;35.57;73.87;;
67900;Laerm;54700;51.796;10.956;2023-03-31T12:24:03;62.37;37.78;75.17;;
67900;Laerm;54700;51.796;10.956;2023-03-31T12:26:57;62.61;38.75;75.26;;
67900;Laerm;54700;51.796;10.956;2023-03-31T12:29:37;63.67;42.15;75.59;;
67900;Laerm;54700;51.796;10.956;2023-03-31T12:32:20;65.44;40.79;78.87;;
67900;Laerm;54700;51.796;10.956;2023-03-31T12:34:57;63.67;47.23;71.56;;
67900;Laerm;54700;51.796;10.956;2023-03-31T12:37:58;64.06;40.79;75.03;;
67900;Laerm;54700;51.796;10.956;2023-03-31T12:40:36;62.41;44.47;77.04;;
67900;Laerm;54700;51.796;10.956;2023-03-31T12:47:04;64.43;49.10;74.17;;
67900;Laerm;54700;51.796;10.956;2023-03-31T12:50:12;64.05;47.96;70.67;;
67900;Laerm;54700;51.796;10.956;2023-03-31T12:52:50;64.25;46.58;75.21;;
67900;Laerm;54700;51.796;10.956;2023-03-31T12:55:30;63.71;47.86;71.18;;
67900;Laerm;54700;51.796;10.956;2023-03-31T13:01:16;65.35;52.27;75.40;;
67900;Laerm;54700;51.796;10.956;2023-03-31T13:07:07;64.41;50.67;71.54;;
67900;Laerm;54700;51.796;10.956;2023-03-31T13:09:58;61.77;46.96;69.18;;
67900;Laerm;54700;51.796;10.956;2023-03-31T13:13:03;64.62;44.37;71.73;;
67900;Laerm;54700;51.796;10.956;2023-03-31T13:15:31;63.21;49.07;71.38;;
67900;Laerm;54700;51.796;10.956;2023-03-31T13:18:05;64.61;49.33;77.72;;
67900;Laerm;54700;51.796;10.956;2023-03-31T13:20:34;66.08;51.89;82.85;;
67900;Laerm;54700;51.796;10.956;2023-03-31T13:23:15;62.64;46.72;69.88;;
67900;Laerm;54700;51.796;10.956;2023-03-31T13:25:47;63.08;41.58;69.32;;
67900;Laerm;54700;51.796;10.956;2023-03-31T13:28:38;64.27;42.63;74.56;;
67900;Laerm;54700;51.796;10.956;2023-03-31T13:31:11;62.96;40.89;70.87;;
67900;Laerm;54700;51.796;10.956;2023-03-31T13:33:43;64.39;44.55;74.20;;
67900;Laerm;54700;51.796;10.956;2023-03-31T13:39:32;62.22;39.42;73.54;;
67900;Laerm;54700;51.796;10.956;2023-03-31T13:42:22;63.74;46.88;71.51;;
67900;Laerm;54700;51.796;10.956;2023-03-31T13:45:09;62.61;40.73;71.97;;
67900;Laerm;54700;51.796;10.956;2023-03-31T13:47:55;63.65;39.83;74.71;;
67900;Laerm;54700;51.796;10.956;2023-03-31T13:50:35;62.95;39.97;71.86;;
67900;Laerm;54700;51.796;10.956;2023-03-31T13:53:21;65.08;45.42;89.09;;
67900;Laerm;54700;51.796;10.956;2023-03-31T13:56:03;63.84;42.09;71.41;;
67900;Laerm;54700;51.796;10.956;2023-03-31T13:58:48;60.46;38.24;71.75;;
67900;Laerm;54700;51.796;10.956;2023-03-31T14:01:46;64.89;45.71;75.06;;
67900;Laerm;54700;51.796;10.956;2023-03-31T14:04:38;61.70;42.81;71.63;;
67900;Laerm;54700;51.796;10.956;2023-03-31T14:07:17;66.69;51.57;73.45;;
67900;Laerm;54700;51.796;10.956;2023-03-31T14:09:49;66.69;48.25;77.02;;
67900;Laerm;54700;51.796;10.956;2023-03-31T14:12:32;68.33;54.04;77.05;;
67900;Laerm;54700;51.796;10.956;2023-03-31T14:15:02;65.32;47.17;73.41;;
67900;Laerm;54700;51.796;10.956;2023-03-31T14:17:35;67.03;53.94;76.37;;
67900;Laerm;54700;51.796;10.956;2023-03-31T14:20:22;68.63;52.75;87.96;;
67900;Laerm;54700;51.796;10.956;2023-03-31T14:23:02;68.36;53.17;75.48;;
67900;Laerm;54700;51.796;10.956;2023-03-31T14:25:39;68.98;55.16;81.89;;
67900;Laerm;54700;51.796;10.956;2023-03-31T14:28:24;70.96;58.49;86.64;;
67900;Laerm;54700;51.796;10.956;2023-03-31T14:31:09;70.80;55.31;76.64;;
67900;Laerm;54700;51.796;10.956;2023-03-31T14:34:03;69.00;55.24;78.83;;
67900;Laerm;54700;51.796;10.956;2023-03-31T14:36:35;67.29;52.45;82.16;;
67900;Laerm;54700;51.796;10.956;2023-03-31T14:39:12;68.60;55.25;75.60;;
67900;Laerm;54700;51.796;10.956;2023-03-31T14:41:41;68.63;51.65;83.59;;
67900;Laerm;54700;51.796;10.956;2023-03-31T14:44:22;70.23;60.50;82.67;;
67900;Laerm;54700;51.796;10.956;2023-03-31T14:46:55;70.68;59.86;84.70;;
67900;Laerm;54700;51.796;10.956;2023-03-31T14:49:27;70.45;58.29;81.02;;
67900;Laerm;54700;51.796;10.956;2023-03-31T14:52:13;71.22;62.65;84.51;;
67900;Laerm;54700;51.796;10.956;2023-03-31T14:54:46;71.35;57.70;85.95;;
67900;Laerm;54700;51.796;10.956;2023-03-31T14:57:33;70.22;54.56;81.35;;
67900;Laerm;54700;51.796;10.956;2023-03-31T15:03:30;69.92;55.86;77.72;;
67900;Laerm;54700;51.796;10.956;2023-03-31T15:06:29;69.26;57.02;85.44;;
67900;Laerm;54700;51.796;10.956;2023-03-31T15:09:04;66.72;55.14;77.48;;
67900;Laerm;54700;51.796;10.956;2023-03-31T15:11:53;70.27;55.56;78.53;;
67900;Laerm;54700;51.796;10.956;2023-03-31T15:14:35;69.50;54.96;80.40;;
67900;Laerm;54700;51.796;10.956;2023-03-31T15:17:20;69.50;54.38;78.33;;
67900;Laerm;54700;51.796;10.956;2023-03-31T15:19:52;69.00;56.67;76.62;;
67900;Laerm;54700;51.796;10.956;2023-03-31T15:22:32;67.94;52.16;75.52;;
67900;Laerm;54700;51.796;10.956;2023-03-31T15:25:03;67.77;54.40;77.70;;